sensor_id;sensor_type;location;lat;lon;timestamp;P1;durP1;ratioP1;P2;durP2;ratioP2
18340;SDS011;9296;48.084;16.352;2023-08-24T00:01:30;11.15;;;9.98;;
18340;SDS011;9296;48.084;16.352;2023-08-24T00:03:58;11.10;;;9.63;;
18340;SDS011;9296;48.084;16.352;2023-08-24T00:06:25;12.10;;;9.85;;
18340;SDS011;9296;48.084;16.352;2023-08-24T00:08:52;12.40;;;10.13;;
18340;SDS011;9296;48.084;16.352;2023-08-24T00:11:21;12.27;;;9.80;;
18340;SDS011;9296;48.084;16.352;2023-08-24T00:13:48;10.70;;;9.60;;
18340;SDS011;9296;48.084;16.352;2023-08-24T00:16:34;11.95;;;9.65;;
18340;SDS011;9296;48.084;16.352;2023-08-24T00:19:01;12.30;;;9.95;;
18340;SDS011;9296;48.084;16.352;2023-08-24T00:21:42;11.00;;;9.85;;
18340;SDS011;9296;48.084;16.352;2023-08-24T00:24:14;12.13;;;10.90;;
18340;SDS011;9296;48.084;16.352;2023-08-24T00:26:42;11.73;;;10.52;;
18340;SDS011;9296;48.084;16.352;2023-08-24T00:29:10;11.60;;;10.40;;
18340;SDS011;9296;48.084;16.352;2023-08-24T00:31:55;11.75;;;10.40;;
18340;SDS011;9296;48.084;16.352;2023-08-24T00:34:23;11.75;;;10.40;;
18340;SDS011;9296;48.084;16.352;2023-08-24T00:36:51;12.48;;;10.68;;
18340;SDS011;9296;48.084;16.352;2023-08-24T00:39:21;14.35;;;11.07;;
18340;SDS011;9296;48.084;16.352;2023-08-24T00:41:49;11.77;;;10.57;;
18340;SDS011;9296;48.084;16.352;2023-08-24T00:44:17;12.38;;;10.63;;
18340;SDS011;9296;48.084;16.352;2023-08-24T00:46:44;11.93;;;10.73;;
18340;SDS011;9296;48.084;16.352;2023-08-24T00:49:12;12.45;;;11.15;;
18340;SDS011;9296;48.084;16.352;2023-08-24T00:51:39;11.75;;;10.65;;
18340;SDS011;9296;48.084;16.352;2023-08-24T00:54:06;11.57;;;10.52;;
18340;SDS011;9296;48.084;16.352;2023-08-24T00:56:37;14.98;;;10.40;;
18340;SDS011;9296;48.084;16.352;2023-08-24T00:59:06;12.77;;;10.88;;
18340;SDS011;9296;48.084;16.352;2023-08-24T01:01:34;13.48;;;10.95;;
18340;SDS011;9296;48.084;16.352;2023-08-24T01:04:04;12.02;;;10.65;;
18340;SDS011;9296;48.084;16.352;2023-08-24T01:06:32;12.48;;;11.18;;
18340;SDS011;9296;48.084;16.352;2023-08-24T01:08:58;12.88;;;11.52;;
18340;SDS011;9296;48.084;16.352;2023-08-24T01:11:30;13.63;;;11.30;;
18340;SDS011;9296;48.084;16.352;2023-08-24T01:13:59;12.68;;;11.25;;
18340;SDS011;9296;48.084;16.352;2023-08-24T01:22:46;12.10;;;10.90;;
18340;SDS011;9296;48.084;16.352;2023-08-24T01:25:16;12.90;;;11.35;;
18340;SDS011;9296;48.084;16.352;2023-08-24T01:27:47;13.55;;;11.38;;
18340;SDS011;9296;48.084;16.352;2023-08-24T01:30:15;12.73;;;11.30;;
18340;SDS011;9296;48.084;16.352;2023-08-24T01:35:46;12.65;;;11.27;;
18340;SDS011;9296;48.084;16.352;2023-08-24T01:38:13;12.63;;;11.32;;
18340;SDS011;9296;48.084;16.352;2023-08-24T01:40:44;14.10;;;11.38;;
18340;SDS011;9296;48.084;16.352;2023-08-24T01:43:14;12.40;;;11.07;;
18340;SDS011;9296;48.084;16.352;2023-08-24T01:45:42;12.82;;;10.77;;
18340;SDS011;9296;48.084;16.352;2023-08-24T01:51:14;12.38;;;11.10;;
18340;SDS011;9296;48.084;16.352;2023-08-24T01:53:41;13.82;;;10.70;;
18340;SDS011;9296;48.084;16.352;2023-08-24T01:56:09;12.30;;;11.00;;
18340;SDS011;9296;48.084;16.352;2023-08-24T01:58:38;11.80;;;10.68;;
18340;SDS011;9296;48.084;16.352;2023-08-24T02:01:06;12.50;;;10.60;;
18340;SDS011;9296;48.084;16.352;2023-08-24T02:03:38;12.07;;;10.88;;
18340;SDS011;9296;48.084;16.352;2023-08-24T02:06:06;13.75;;;10.70;;
18340;SDS011;9296;48.084;16.352;2023-08-24T02:08:33;12.02;;;10.63;;
18340;SDS011;9296;48.084;16.352;2023-08-24T02:11:00;12.73;;;11.18;;
18340;SDS011;9296;48.084;16.352;2023-08-24T02:13:27;11.88;;;10.68;;
18340;SDS011;9296;48.084;16.352;2023-08-24T02:16:07;13.60;;;11.30;;
18340;SDS011;9296;48.084;16.352;2023-08-24T02:18:38;13.23;;;11.15;;
18340;SDS011;9296;48.084;16.352;2023-08-24T02:21:08;12.68;;;11.23;;
18340;SDS011;9296;48.084;16.352;2023-08-24T02:23:37;12.05;;;10.85;;
18340;SDS011;9296;48.084;16.352;2023-08-24T02:26:05;13.25;;;11.10;;
18340;SDS011;9296;48.084;16.352;2023-08-24T02:28:32;12.73;;;11.25;;
18340;SDS011;9296;48.084;16.352;2023-08-24T02:34:00;12.55;;;11.25;;
18340;SDS011;9296;48.084;16.352;2023-08-24T02:36:27;15.48;;;11.00;;
18340;SDS011;9296;48.084;16.352;2023-08-24T02:38:58;15.15;;;11.70;;
18340;SDS011;9296;48.084;16.352;2023-08-24T02:41:25;12.68;;;11.38;;
18340;SDS011;9296;48.084;16.352;2023-08-24T02:43:52;12.73;;;11.27;;
18340;SDS011;9296;48.084;16.352;2023-08-24T02:49:24;12.65;;;11.30;;
18340;SDS011;9296;48.084;16.352;2023-08-24T02:51:51;13.23;;;11.65;;
18340;SDS011;9296;48.084;16.352;2023-08-24T02:54:18;13.45;;;11.85;;
18340;SDS011;9296;48.084;16.352;2023-08-24T02:56:46;13.55;;;11.38;;
18340;SDS011;9296;48.084;16.352;2023-08-24T02:59:13;13.35;;;11.95;;
18340;SDS011;9296;48.084;16.352;2023-08-24T03:07:53;12.60;;;11.13;;
18340;SDS011;9296;48.084;16.352;2023-08-24T03:10:20;13.77;;;10.90;;
18340;SDS011;9296;48.084;16.352;2023-08-24T03:12:47;11.77;;;10.68;;
18340;SDS011;9296;48.084;16.352;2023-08-24T03:15:15;13.95;;;11.32;;
18340;SDS011;9296;48.084;16.352;2023-08-24T03:20:48;12.20;;;10.90;;
18340;SDS011;9296;48.084;16.352;2023-08-24T03:23:17;15.93;;;11.13;;
18340;SDS011;9296;48.084;16.352;2023-08-24T03:25:44;12.52;;;11.25;;
18340;SDS011;9296;48.084;16.352;2023-08-24T03:28:11;14.05;;;11.85;;
18340;SDS011;9296;48.084;16.352;2023-08-24T03:30:45;13.18;;;11.45;;
18340;SDS011;9296;48.084;16.352;2023-08-24T03:36:16;12.60;;;11.38;;
18340;SDS011;9296;48.084;16.352;2023-08-24T03:38:45;14.32;;;11.70;;
18340;SDS011;9296;48.084;16.352;2023-08-24T03:41:11;14.00;;;12.05;;
18340;SDS011;9296;48.084;16.352;2023-08-24T03:43:38;13.25;;;11.85;;
18340;SDS011;9296;48.084;16.352;2023-08-24T03:46:05;12.50;;;11.20;;
18340;SDS011;9296;48.084;16.352;2023-08-24T03:48:33;12.50;;;10.77;;
18340;SDS011;9296;48.084;16.352;2023-08-24T03:51:00;12.82;;;11.50;;
18340;SDS011;9296;48.084;16.352;2023-08-24T03:53:28;12.93;;;11.60;;
18340;SDS011;9296;48.084;16.352;2023-08-24T03:55:56;12.75;;;11.55;;
18340;SDS011;9296;48.084;16.352;2023-08-24T03:58:24;14.18;;;11.88;;
18340;SDS011;9296;48.084;16.352;2023-08-24T04:00:54;13.25;;;11.88;;
18340;SDS011;9296;48.084;16.352;2023-08-24T04:06:25;13.88;;;12.38;;
18340;SDS011;9296;48.084;16.352;2023-08-24T04:08:52;13.55;;;12.23;;
18340;SDS011;9296;48.084;16.352;2023-08-24T04:11:21;13.57;;;12.27;;
18340;SDS011;9296;48.084;16.352;2023-08-24T04:13:48;14.48;;;13.07;;
18340;SDS011;9296;48.084;16.352;2023-08-24T04:22:24;15.55;;;13.95;;
18340;SDS011;9296;48.084;16.352;2023-08-24T04:24:51;18.27;;;14.90;;
18340;SDS011;9296;48.084;16.352;2023-08-24T04:27:20;17.52;;;14.02;;
18340;SDS011;9296;48.084;16.352;2023-08-24T04:29:48;17.45;;;14.63;;
18340;SDS011;9296;48.084;16.352;2023-08-24T04:32:16;15.90;;;13.93;;
18340;SDS011;9296;48.084;16.352;2023-08-24T04:34:43;17.55;;;14.52;;
18340;SDS011;9296;48.084;16.352;2023-08-24T04:37:10;17.08;;;14.75;;
18340;SDS011;9296;48.084;16.352;2023-08-24T04:39:38;16.38;;;14.65;;
18340;SDS011;9296;48.084;16.352;2023-08-24T04:42:05;16.20;;;14.52;;
18340;SDS011;9296;48.084;16.352;2023-08-24T04:44:34;17.13;;;15.30;;
18340;SDS011;9296;48.084;16.352;2023-08-24T04:47:01;15.50;;;13.98;;
18340;SDS011;9296;48.084;16.352;2023-08-24T04:49:29;19.98;;;14.70;;
18340;SDS011;9296;48.084;16.352;2023-08-24T04:51:56;17.02;;;14.63;;
18340;SDS011;9296;48.084;16.352;2023-08-24T04:54:24;17.25;;;15.45;;
18340;SDS011;9296;48.084;16.352;2023-08-24T04:56:51;18.92;;;15.15;;
18340;SDS011;9296;48.084;16.352;2023-08-24T04:59:18;18.52;;;14.73;;
18340;SDS011;9296;48.084;16.352;2023-08-24T05:01:49;16.15;;;13.88;;
18340;SDS011;9296;48.084;16.352;2023-08-24T05:04:16;15.95;;;14.13;;
18340;SDS011;9296;48.084;16.352;2023-08-24T05:06:43;14.88;;;13.38;;
18340;SDS011;9296;48.084;16.352;2023-08-24T05:09:10;15.85;;;13.25;;
18340;SDS011;9296;48.084;16.352;2023-08-24T05:11:37;14.45;;;13.05;;
18340;SDS011;9296;48.084;16.352;2023-08-24T05:14:04;14.80;;;13.32;;
18340;SDS011;9296;48.084;16.352;2023-08-24T05:22:41;16.55;;;13.02;;
18340;SDS011;9296;48.084;16.352;2023-08-24T05:25:08;13.75;;;12.35;;
18340;SDS011;9296;48.084;16.352;2023-08-24T05:27:35;14.43;;;12.93;;
18340;SDS011;9296;48.084;16.352;2023-08-24T05:30:03;13.65;;;12.25;;
18340;SDS011;9296;48.084;16.352;2023-08-24T05:32:30;13.32;;;11.93;;
18340;SDS011;9296;48.084;16.352;2023-08-24T05:34:57;15.40;;;13.52;;
18340;SDS011;9296;48.084;16.352;2023-08-24T05:37:25;15.35;;;12.07;;
18340;SDS011;9296;48.084;16.352;2023-08-24T05:40:01;17.48;;;12.95;;
18340;SDS011;9296;48.084;16.352;2023-08-24T05:42:31;14.38;;;12.52;;
18340;SDS011;9296;48.084;16.352;2023-08-24T05:44:58;13.85;;;12.40;;
18340;SDS011;9296;48.084;16.352;2023-08-24T05:47:25;14.13;;;11.85;;
18340;SDS011;9296;48.084;16.352;2023-08-24T05:49:53;14.15;;;12.15;;
18340;SDS011;9296;48.084;16.352;2023-08-24T05:52:20;13.13;;;11.75;;
18340;SDS011;9296;48.084;16.352;2023-08-24T05:54:48;13.30;;;11.90;;
18340;SDS011;9296;48.084;16.352;2023-08-24T05:57:19;14.57;;;11.68;;
18340;SDS011;9296;48.084;16.352;2023-08-24T05:59:47;13.38;;;11.23;;
18340;SDS011;9296;48.084;16.352;2023-08-24T06:02:14;15.30;;;11.77;;
18340;SDS011;9296;48.084;16.352;2023-08-24T06:04:41;15.23;;;11.57;;
18340;SDS011;9296;48.084;16.352;2023-08-24T06:07:08;14.55;;;12.02;;
18340;SDS011;9296;48.084;16.352;2023-08-24T06:09:36;14.98;;;12.00;;
18340;SDS011;9296;48.084;16.352;2023-08-24T06:12:03;12.38;;;10.82;;
18340;SDS011;9296;48.084;16.352;2023-08-24T06:14:32;13.23;;;11.80;;
18340;SDS011;9296;48.084;16.352;2023-08-24T06:20:03;15.15;;;13.00;;
18340;SDS011;9296;48.084;16.352;2023-08-24T06:22:30;16.02;;;12.98;;
18340;SDS011;9296;48.084;16.352;2023-08-24T06:24:57;15.77;;;13.00;;
18340;SDS011;9296;48.084;16.352;2023-08-24T06:27:25;14.63;;;12.25;;
18340;SDS011;9296;48.084;16.352;2023-08-24T06:29:53;13.48;;;12.13;;
18340;SDS011;9296;48.084;16.352;2023-08-24T06:32:21;13.75;;;11.35;;
18340;SDS011;9296;48.084;16.352;2023-08-24T06:34:48;14.85;;;12.13;;
18340;SDS011;9296;48.084;16.352;2023-08-24T06:37:15;12.18;;;10.77;;
18340;SDS011;9296;48.084;16.352;2023-08-24T06:39:42;13.98;;;11.93;;
18340;SDS011;9296;48.084;16.352;2023-08-24T06:42:09;13.75;;;12.10;;
18340;SDS011;9296;48.084;16.352;2023-08-24T06:44:36;14.98;;;11.93;;
18340;SDS011;9296;48.084;16.352;2023-08-24T06:47:05;13.95;;;12.07;;
18340;SDS011;9296;48.084;16.352;2023-08-24T06:49:32;13.85;;;11.90;;
18340;SDS011;9296;48.084;16.352;2023-08-24T06:52:00;16.08;;;11.20;;
18340;SDS011;9296;48.084;16.352;2023-08-24T06:54:28;13.55;;;11.75;;
18340;SDS011;9296;48.084;16.352;2023-08-24T06:56:55;14.07;;;12.23;;
18340;SDS011;9296;48.084;16.352;2023-08-24T06:59:24;11.90;;;10.70;;
18340;SDS011;9296;48.084;16.352;2023-08-24T07:04:56;14.20;;;11.25;;
18340;SDS011;9296;48.084;16.352;2023-08-24T07:07:24;12.23;;;10.93;;
18340;SDS011;9296;48.084;16.352;2023-08-24T07:09:51;11.68;;;10.50;;
18340;SDS011;9296;48.084;16.352;2023-08-24T07:12:18;12.10;;;10.63;;
18340;SDS011;9296;48.084;16.352;2023-08-24T07:14:45;15.45;;;10.50;;
18340;SDS011;9296;48.084;16.352;2023-08-24T07:20:18;14.15;;;11.13;;
18340;SDS011;9296;48.084;16.352;2023-08-24T07:22:45;13.90;;;10.93;;
18340;SDS011;9296;48.084;16.352;2023-08-24T07:25:13;12.00;;;10.32;;
18340;SDS011;9296;48.084;16.352;2023-08-24T07:27:40;11.60;;;9.95;;
18340;SDS011;9296;48.084;16.352;2023-08-24T07:30:08;14.23;;;11.27;;
18340;SDS011;9296;48.084;16.352;2023-08-24T07:32:36;14.90;;;10.80;;
18340;SDS011;9296;48.084;16.352;2023-08-24T07:35:03;11.05;;;9.98;;
18340;SDS011;9296;48.084;16.352;2023-08-24T07:37:33;12.38;;;10.85;;
18340;SDS011;9296;48.084;16.352;2023-08-24T07:40:00;12.25;;;10.88;;
18340;SDS011;9296;48.084;16.352;2023-08-24T07:42:28;13.13;;;11.68;;
18340;SDS011;9296;48.084;16.352;2023-08-24T07:44:55;13.18;;;10.40;;
18340;SDS011;9296;48.084;16.352;2023-08-24T07:50:45;12.63;;;10.02;;
18340;SDS011;9296;48.084;16.352;2023-08-24T07:53:14;11.48;;;9.85;;
18340;SDS011;9296;48.084;16.352;2023-08-24T07:55:41;11.07;;;9.57;;
18340;SDS011;9296;48.084;16.352;2023-08-24T07:58:08;11.82;;;9.80;;
18340;SDS011;9296;48.084;16.352;2023-08-24T08:00:36;11.23;;;10.02;;
18340;SDS011;9296;48.084;16.352;2023-08-24T08:03:03;11.93;;;9.98;;
18340;SDS011;9296;48.084;16.352;2023-08-24T08:05:30;17.20;;;9.68;;
18340;SDS011;9296;48.084;16.352;2023-08-24T08:07:58;18.45;;;10.32;;
18340;SDS011;9296;48.084;16.352;2023-08-24T08:10:26;12.80;;;8.88;;
18340;SDS011;9296;48.084;16.352;2023-08-24T08:12:54;17.63;;;8.77;;
18340;SDS011;9296;48.084;16.352;2023-08-24T08:15:21;12.57;;;9.00;;
18340;SDS011;9296;48.084;16.352;2023-08-24T08:23:56;15.93;;;9.13;;
18340;SDS011;9296;48.084;16.352;2023-08-24T08:26:25;12.73;;;8.20;;
18340;SDS011;9296;48.084;16.352;2023-08-24T08:28:52;9.45;;;7.93;;
18340;SDS011;9296;48.084;16.352;2023-08-24T08:31:19;14.52;;;8.77;;
18340;SDS011;9296;48.084;16.352;2023-08-24T08:36:50;13.65;;;8.57;;
18340;SDS011;9296;48.084;16.352;2023-08-24T08:39:17;17.75;;;8.10;;
18340;SDS011;9296;48.084;16.352;2023-08-24T08:41:45;16.92;;;8.68;;
18340;SDS011;9296;48.084;16.352;2023-08-24T08:44:13;11.02;;;8.50;;
18340;SDS011;9296;48.084;16.352;2023-08-24T08:46:42;13.38;;;8.73;;
18340;SDS011;9296;48.084;16.352;2023-08-24T08:52:12;13.50;;;9.10;;
18340;SDS011;9296;48.084;16.352;2023-08-24T08:54:40;14.55;;;8.20;;
18340;SDS011;9296;48.084;16.352;2023-08-24T08:57:08;18.70;;;10.32;;
18340;SDS011;9296;48.084;16.352;2023-08-24T08:59:36;10.43;;;8.32;;
18340;SDS011;9296;48.084;16.352;2023-08-24T09:02:04;10.98;;;8.77;;
18340;SDS011;9296;48.084;16.352;2023-08-24T09:07:35;13.43;;;8.18;;
18340;SDS011;9296;48.084;16.352;2023-08-24T09:23:01;9.85;;;8.82;;
18340;SDS011;9296;48.084;16.352;2023-08-24T09:25:28;13.98;;;9.65;;
18340;SDS011;9296;48.084;16.352;2023-08-24T09:27:56;12.65;;;9.70;;
18340;SDS011;9296;48.084;16.352;2023-08-24T09:30:25;11.57;;;9.10;;
18340;SDS011;9296;48.084;16.352;2023-08-24T09:36:17;10.52;;;8.30;;
18340;SDS011;9296;48.084;16.352;2023-08-24T09:41:21;12.93;;;7.80;;
18340;SDS011;9296;48.084;16.352;2023-08-24T09:46:24;9.00;;;7.10;;
18340;SDS011;9296;48.084;16.352;2023-08-24T09:48:53;11.02;;;6.93;;
18340;SDS011;9296;48.084;16.352;2023-08-24T09:51:21;8.70;;;6.57;;
18340;SDS011;9296;48.084;16.352;2023-08-24T10:06:31;9.85;;;6.53;;
18340;SDS011;9296;48.084;16.352;2023-08-24T10:09:01;9.90;;;6.32;;
18340;SDS011;9296;48.084;16.352;2023-08-24T10:11:46;7.63;;;6.85;;
18340;SDS011;9296;48.084;16.352;2023-08-24T10:14:36;9.30;;;6.78;;
18340;SDS011;9296;48.084;16.352;2023-08-24T10:17:07;7.18;;;6.47;;
18340;SDS011;9296;48.084;16.352;2023-08-24T10:19:35;8.55;;;6.68;;
18340;SDS011;9296;48.084;16.352;2023-08-24T10:22:04;10.95;;;6.40;;
18340;SDS011;9296;48.084;16.352;2023-08-24T10:24:32;8.50;;;6.68;;
18340;SDS011;9296;48.084;16.352;2023-08-24T10:26:59;10.05;;;6.53;;
18340;SDS011;9296;48.084;16.352;2023-08-24T10:29:27;8.32;;;6.90;;
18340;SDS011;9296;48.084;16.352;2023-08-24T10:31:54;10.48;;;6.90;;
18340;SDS011;9296;48.084;16.352;2023-08-24T10:37:27;9.13;;;6.80;;
18340;SDS011;9296;48.084;16.352;2023-08-24T10:39:54;9.73;;;7.05;;
18340;SDS011;9296;48.084;16.352;2023-08-24T10:42:21;10.70;;;7.07;;
18340;SDS011;9296;48.084;16.352;2023-08-24T10:44:51;6.80;;;6.00;;
18340;SDS011;9296;48.084;16.352;2023-08-24T10:47:18;8.38;;;6.97;;
18340;SDS011;9296;48.084;16.352;2023-08-24T10:53:02;10.38;;;6.82;;
18340;SDS011;9296;48.084;16.352;2023-08-24T10:55:29;7.75;;;6.65;;
18340;SDS011;9296;48.084;16.352;2023-08-24T10:58:01;8.23;;;7.00;;
18340;SDS011;9296;48.084;16.352;2023-08-24T11:00:28;9.05;;;6.72;;
18340;SDS011;9296;48.084;16.352;2023-08-24T11:09:24;10.32;;;7.10;;
18340;SDS011;9296;48.084;16.352;2023-08-24T11:11:56;10.20;;;6.75;;
18340;SDS011;9296;48.084;16.352;2023-08-24T11:14:23;8.75;;;6.65;;
18340;SDS011;9296;48.084;16.352;2023-08-24T11:22:43;8.70;;;6.82;;
18340;SDS011;9296;48.084;16.352;2023-08-24T11:25:12;9.73;;;6.68;;
18340;SDS011;9296;48.084;16.352;2023-08-24T11:27:39;11.50;;;6.63;;
18340;SDS011;9296;48.084;16.352;2023-08-24T11:30:08;9.20;;;6.80;;
18340;SDS011;9296;48.084;16.352;2023-08-24T11:32:35;11.02;;;6.85;;
18340;SDS011;9296;48.084;16.352;2023-08-24T11:38:06;9.02;;;6.93;;
18340;SDS011;9296;48.084;16.352;2023-08-24T11:40:34;9.65;;;6.63;;
18340;SDS011;9296;48.084;16.352;2023-08-24T11:43:02;10.70;;;6.25;;
18340;SDS011;9296;48.084;16.352;2023-08-24T11:45:30;10.30;;;6.60;;
18340;SDS011;9296;48.084;16.352;2023-08-24T11:47:58;10.13;;;6.43;;
18340;SDS011;9296;48.084;16.352;2023-08-24T11:50:26;7.90;;;6.85;;
18340;SDS011;9296;48.084;16.352;2023-08-24T11:52:53;11.15;;;6.00;;
18340;SDS011;9296;48.084;16.352;2023-08-24T11:55:27;8.38;;;6.43;;
18340;SDS011;9296;48.084;16.352;2023-08-24T12:00:40;11.52;;;6.30;;
18340;SDS011;9296;48.084;16.352;2023-08-24T12:03:08;11.57;;;6.45;;
18340;SDS011;9296;48.084;16.352;2023-08-24T12:05:35;8.27;;;6.85;;
18340;SDS011;9296;48.084;16.352;2023-08-24T12:08:03;11.95;;;6.38;;
18340;SDS011;9296;48.084;16.352;2023-08-24T12:10:30;7.65;;;5.82;;
18340;SDS011;9296;48.084;16.352;2023-08-24T12:13:02;7.88;;;6.40;;
18340;SDS011;9296;48.084;16.352;2023-08-24T12:15:30;7.10;;;6.40;;
18340;SDS011;9296;48.084;16.352;2023-08-24T12:21:07;8.57;;;6.45;;
18340;SDS011;9296;48.084;16.352;2023-08-24T12:23:34;10.00;;;6.80;;
18340;SDS011;9296;48.084;16.352;2023-08-24T12:26:01;6.82;;;6.13;;
18340;SDS011;9296;48.084;16.352;2023-08-24T12:28:30;9.57;;;6.35;;
18340;SDS011;9296;48.084;16.352;2023-08-24T12:30:57;9.02;;;6.28;;
18340;SDS011;9296;48.084;16.352;2023-08-24T12:33:27;7.18;;;6.05;;
18340;SDS011;9296;48.084;16.352;2023-08-24T12:35:55;10.63;;;6.28;;
18340;SDS011;9296;48.084;16.352;2023-08-24T12:38:25;6.85;;;6.15;;
18340;SDS011;9296;48.084;16.352;2023-08-24T12:40:55;7.53;;;6.10;;
18340;SDS011;9296;48.084;16.352;2023-08-24T12:43:22;8.05;;;6.28;;
18340;SDS011;9296;48.084;16.352;2023-08-24T12:45:49;8.32;;;6.35;;
18340;SDS011;9296;48.084;16.352;2023-08-24T12:48:16;7.15;;;6.35;;
18340;SDS011;9296;48.084;16.352;2023-08-24T12:50:43;11.52;;;6.55;;
18340;SDS011;9296;48.084;16.352;2023-08-24T12:53:11;7.15;;;5.88;;
18340;SDS011;9296;48.084;16.352;2023-08-24T12:55:39;6.85;;;6.15;;
18340;SDS011;9296;48.084;16.352;2023-08-24T12:58:07;7.72;;;6.90;;
18340;SDS011;9296;48.084;16.352;2023-08-24T13:00:34;7.07;;;6.38;;
18340;SDS011;9296;48.084;16.352;2023-08-24T13:03:01;8.82;;;6.22;;
18340;SDS011;9296;48.084;16.352;2023-08-24T13:08:41;6.95;;;6.25;;
18340;SDS011;9296;48.084;16.352;2023-08-24T13:16:17;8.98;;;6.20;;
18340;SDS011;9296;48.084;16.352;2023-08-24T13:21:50;7.10;;;6.40;;
18340;SDS011;9296;48.084;16.352;2023-08-24T13:24:17;7.03;;;6.32;;
18340;SDS011;9296;48.084;16.352;2023-08-24T13:26:48;9.90;;;6.57;;
18340;SDS011;9296;48.084;16.352;2023-08-24T13:29:15;11.30;;;6.93;;
18340;SDS011;9296;48.084;16.352;2023-08-24T13:31:53;11.57;;;6.32;;
18340;SDS011;9296;48.084;16.352;2023-08-24T13:53:41;9.93;;;6.45;;
18340;SDS011;9296;48.084;16.352;2023-08-24T13:56:08;11.88;;;6.25;;
18340;SDS011;9296;48.084;16.352;2023-08-24T13:58:36;9.43;;;6.35;;
18340;SDS011;9296;48.084;16.352;2023-08-24T14:01:03;7.63;;;6.13;;
18340;SDS011;9296;48.084;16.352;2023-08-24T14:03:31;11.57;;;6.32;;
18340;SDS011;9296;48.084;16.352;2023-08-24T14:06:09;7.28;;;6.40;;
18340;SDS011;9296;48.084;16.352;2023-08-24T14:16:29;7.78;;;6.22;;
18340;SDS011;9296;48.084;16.352;2023-08-24T14:19:11;7.32;;;6.60;;
18340;SDS011;9296;48.084;16.352;2023-08-24T14:21:38;7.05;;;6.40;;
18340;SDS011;9296;48.084;16.352;2023-08-24T14:24:06;7.35;;;6.65;;
18340;SDS011;9296;48.084;16.352;2023-08-24T14:26:33;8.35;;;6.38;;
18340;SDS011;9296;48.084;16.352;2023-08-24T14:29:01;7.05;;;6.35;;
18340;SDS011;9296;48.084;16.352;2023-08-24T14:31:29;9.93;;;6.75;;
18340;SDS011;9296;48.084;16.352;2023-08-24T14:33:56;10.95;;;6.43;;
18340;SDS011;9296;48.084;16.352;2023-08-24T14:36:24;7.38;;;6.50;;
18340;SDS011;9296;48.084;16.352;2023-08-24T14:38:51;7.22;;;6.30;;
18340;SDS011;9296;48.084;16.352;2023-08-24T14:41:18;12.43;;;6.40;;
18340;SDS011;9296;48.084;16.352;2023-08-24T14:43:46;8.10;;;6.25;;
18340;SDS011;9296;48.084;16.352;2023-08-24T14:46:13;9.90;;;6.55;;
18340;SDS011;9296;48.084;16.352;2023-08-24T14:54:49;8.20;;;6.38;;
18340;SDS011;9296;48.084;16.352;2023-08-24T14:57:16;11.23;;;6.70;;
18340;SDS011;9296;48.084;16.352;2023-08-24T14:59:43;7.43;;;6.32;;
18340;SDS011;9296;48.084;16.352;2023-08-24T15:02:10;8.63;;;6.40;;
18340;SDS011;9296;48.084;16.352;2023-08-24T15:04:38;11.63;;;6.43;;
18340;SDS011;9296;48.084;16.352;2023-08-24T15:07:05;14.75;;;6.93;;
18340;SDS011;9296;48.084;16.352;2023-08-24T15:09:32;9.40;;;6.72;;
18340;SDS011;9296;48.084;16.352;2023-08-24T15:12:01;7.97;;;6.80;;
18340;SDS011;9296;48.084;16.352;2023-08-24T15:14:29;8.10;;;7.30;;
18340;SDS011;9296;48.084;16.352;2023-08-24T15:16:57;10.57;;;6.57;;
18340;SDS011;9296;48.084;16.352;2023-08-24T15:22:30;9.43;;;7.28;;
18340;SDS011;9296;48.084;16.352;2023-08-24T15:24:57;9.85;;;6.80;;
18340;SDS011;9296;48.084;16.352;2023-08-24T15:27:26;7.97;;;7.07;;
18340;SDS011;9296;48.084;16.352;2023-08-24T15:29:53;9.57;;;6.82;;
18340;SDS011;9296;48.084;16.352;2023-08-24T15:32:20;10.00;;;6.47;;
18340;SDS011;9296;48.084;16.352;2023-08-24T15:34:48;10.73;;;6.97;;
18340;SDS011;9296;48.084;16.352;2023-08-24T15:39:48;10.35;;;6.40;;
18340;SDS011;9296;48.084;16.352;2023-08-24T15:45:04;9.48;;;6.75;;
18340;SDS011;9296;48.084;16.352;2023-08-24T15:47:33;9.10;;;6.70;;
18340;SDS011;9296;48.084;16.352;2023-08-24T15:50:01;11.50;;;7.07;;
18340;SDS011;9296;48.084;16.352;2023-08-24T15:52:28;8.40;;;6.30;;
18340;SDS011;9296;48.084;16.352;2023-08-24T15:54:55;6.82;;;6.13;;
18340;SDS011;9296;48.084;16.352;2023-08-24T15:57:23;9.20;;;6.40;;
18340;SDS011;9296;48.084;16.352;2023-08-24T15:59:50;15.68;;;7.00;;
18340;SDS011;9296;48.084;16.352;2023-08-24T16:02:18;7.45;;;6.68;;
18340;SDS011;9296;48.084;16.352;2023-08-24T16:04:46;9.48;;;6.75;;
18340;SDS011;9296;48.084;16.352;2023-08-24T16:07:13;8.13;;;6.90;;
18340;SDS011;9296;48.084;16.352;2023-08-24T16:09:40;8.55;;;6.55;;
18340;SDS011;9296;48.084;16.352;2023-08-24T16:12:07;9.18;;;6.60;;
18340;SDS011;9296;48.084;16.352;2023-08-24T16:14:35;10.30;;;6.82;;
18340;SDS011;9296;48.084;16.352;2023-08-24T16:17:02;8.15;;;7.35;;
18340;SDS011;9296;48.084;16.352;2023-08-24T16:25:38;8.02;;;7.30;;
18340;SDS011;9296;48.084;16.352;2023-08-24T16:28:05;10.48;;;6.93;;
18340;SDS011;9296;48.084;16.352;2023-08-24T16:30:32;7.60;;;6.78;;
18340;SDS011;9296;48.084;16.352;2023-08-24T16:33:01;9.27;;;6.82;;
18340;SDS011;9296;48.084;16.352;2023-08-24T16:35:28;10.88;;;6.68;;
18340;SDS011;9296;48.084;16.352;2023-08-24T16:37:55;9.85;;;6.70;;
18340;SDS011;9296;48.084;16.352;2023-08-24T16:40:22;10.90;;;6.88;;
18340;SDS011;9296;48.084;16.352;2023-08-24T16:42:51;17.17;;;6.63;;
18340;SDS011;9296;48.084;16.352;2023-08-24T16:45:19;14.40;;;7.20;;
18340;SDS011;9296;48.084;16.352;2023-08-24T16:47:46;10.07;;;6.75;;
18340;SDS011;9296;48.084;16.352;2023-08-24T16:53:17;14.52;;;7.80;;
18340;SDS011;9296;48.084;16.352;2023-08-24T16:55:44;20.20;;;7.55;;
18340;SDS011;9296;48.084;16.352;2023-08-24T16:58:13;10.13;;;7.20;;
18340;SDS011;9296;48.084;16.352;2023-08-24T17:00:40;14.65;;;7.43;;
18340;SDS011;9296;48.084;16.352;2023-08-24T17:03:07;18.27;;;7.45;;
18340;SDS011;9296;48.084;16.352;2023-08-24T17:08:38;24.35;;;8.05;;
18340;SDS011;9296;48.084;16.352;2023-08-24T17:11:05;24.70;;;7.95;;
18340;SDS011;9296;48.084;16.352;2023-08-24T17:13:33;15.13;;;7.82;;
18340;SDS011;9296;48.084;16.352;2023-08-24T17:16:00;13.88;;;7.90;;
18340;SDS011;9296;48.084;16.352;2023-08-24T17:18:28;14.35;;;7.40;;
18340;SDS011;9296;48.084;16.352;2023-08-24T17:23:42;14.13;;;7.55;;
18340;SDS011;9296;48.084;16.352;2023-08-24T17:26:09;17.35;;;7.65;;
18340;SDS011;9296;48.084;16.352;2023-08-24T17:28:38;13.63;;;7.80;;
18340;SDS011;9296;48.084;16.352;2023-08-24T17:31:05;9.82;;;7.60;;
18340;SDS011;9296;48.084;16.352;2023-08-24T17:33:33;10.10;;;7.28;;
18340;SDS011;9296;48.084;16.352;2023-08-24T17:39:04;8.25;;;7.32;;
18340;SDS011;9296;48.084;16.352;2023-08-24T17:41:31;17.33;;;8.27;;
18340;SDS011;9296;48.084;16.352;2023-08-24T17:44:00;18.50;;;7.85;;
18340;SDS011;9296;48.084;16.352;2023-08-24T17:46:27;17.50;;;7.35;;
18340;SDS011;9296;48.084;16.352;2023-08-24T17:48:54;16.15;;;7.80;;
18340;SDS011;9296;48.084;16.352;2023-08-24T17:51:22;19.17;;;7.47;;
18340;SDS011;9296;48.084;16.352;2023-08-24T17:53:49;16.15;;;7.43;;
18340;SDS011;9296;48.084;16.352;2023-08-24T17:56:16;18.42;;;7.25;;
18340;SDS011;9296;48.084;16.352;2023-08-24T17:58:44;19.85;;;7.90;;
18340;SDS011;9296;48.084;16.352;2023-08-24T18:01:12;21.35;;;7.15;;
18340;SDS011;9296;48.084;16.352;2023-08-24T18:03:40;13.05;;;7.75;;